Time;durP1;ratioP1;P1;durP2;ratioP2;P2;SDS_P1;SDS_P2;PMS_P1;PMS_P2;Temp;Humidity;BMP_temperature;BMP_pressure;BME280_temperature;BME280_humidity;BME280_pressure;Samples;Min_cycle;Max_cycle;Signal;HPM_P1;HPM_P2
2021/06/20 00:00:18;;;;;;;7.63;7.03;;;20.80;99.90;;;;;;5136550;27;20412;-84
2021/06/20 00:02:44;;;;;;;8.90;7.90;;;20.90;99.90;;;;;;5136532;27;20469;-84
2021/06/20 00:05:13;;;;;;;8.97;8.07;;;20.80;99.90;;;;;;5134234;27;20458;-83
2021/06/20 00:07:42;;;;;;;8.30;7.60;;;20.80;99.90;;;;;;5136206;27;20406;-84
2021/06/20 00:10:09;;;;;;;8.90;8.20;;;20.90;99.90;;;;;;5136475;27;20444;-84
2021/06/20 00:12:36;;;;;;;8.53;7.67;;;20.80;99.90;;;;;;5136131;27;20450;-83
2021/06/20 00:15:04;;;;;;;8.93;8.07;;;20.70;99.90;;;;;;5135013;27;20946;-83
2021/06/20 00:17:30;;;;;;;8.63;7.57;;;20.70;99.90;;;;;;5136243;27;20472;-84
2021/06/20 00:19:55;;;;;;;8.10;7.40;;;20.70;99.90;;;;;;5136341;27;20865;-83
2021/06/20 00:22:21;;;;;;;8.20;7.50;;;20.60;99.90;;;;;;5135820;27;20176;-84
2021/06/20 00:24:47;;;;;;;7.90;7.13;;;20.60;99.90;;;;;;5134796;27;20180;-84
2021/06/20 00:27:12;;;;;;;7.50;6.77;;;20.60;99.90;;;;;;5134829;27;20220;-84
2021/06/20 00:29:38;;;;;;;7.87;7.17;;;20.50;99.90;;;;;;5135981;27;20572;-84
2021/06/20 00:32:04;;;;;;;7.77;7.07;;;20.30;99.90;;;;;;5136057;27;20170;-84
2021/06/20 00:34:29;;;;;;;8.17;7.40;;;20.30;99.90;;;;;;5136035;27;20168;-84
2021/06/20 00:36:55;;;;;;;8.33;7.47;;;20.20;99.90;;;;;;5136016;27;20173;-83
2021/06/20 00:39:20;;;;;;;8.20;7.50;;;20.20;99.90;;;;;;5135620;27;20175;-86
2021/06/20 00:41:46;;;;;;;8.30;7.60;;;20.10;99.90;;;;;;5134587;27;20172;-86
2021/06/20 00:44:11;;;;;;;8.00;7.40;;;20.20;99.90;;;;;;5134472;27;20173;-85
2021/06/20 00:46:37;;;;;;;8.90;8.20;;;20.30;99.90;;;;;;5135732;27;20170;-84
2021/06/20 00:49:02;;;;;;;9.07;8.23;;;20.30;99.90;;;;;;5135553;27;20264;-85
2021/06/20 00:51:28;;;;;;;9.60;8.80;;;20.40;99.90;;;;;;5135710;27;20164;-85
2021/06/20 00:53:54;;;;;;;10.00;8.97;;;20.40;99.90;;;;;;5135142;27;20561;-87
2021/06/20 00:56:20;;;;;;;9.00;8.20;;;20.40;99.90;;;;;;5135478;27;20291;-86
2021/06/20 00:58:47;;;;;;;9.27;8.40;;;20.40;99.90;;;;;;5135493;27;20173;-85
2021/06/20 01:01:13;;;;;;;8.60;7.90;;;20.30;99.90;;;;;;5135364;27;20406;-86
2021/06/20 01:03:38;;;;;;;9.00;8.30;;;20.40;99.90;;;;;;5134107;27;20781;-86
2021/06/20 01:06:04;;;;;;;8.60;7.80;;;20.40;99.90;;;;;;5134109;27;20651;-85
2021/06/20 01:08:30;;;;;;;7.83;7.17;;;20.40;99.90;;;;;;5133685;27;20209;-85
2021/06/20 01:10:56;;;;;;;10.37;9.40;;;20.40;99.90;;;;;;5135250;27;20507;-85
2021/06/20 01:13:22;;;;;;;10.30;9.47;;;20.40;99.90;;;;;;5134910;27;20251;-85
2021/06/20 01:15:50;;;;;;;10.10;9.07;;;20.40;99.90;;;;;;5135008;27;20410;-85
2021/06/20 01:18:17;;;;;;;11.00;9.93;;;20.30;99.90;;;;;;5135121;27;20247;-85
2021/06/20 01:20:43;;;;;;;9.80;9.00;;;20.40;99.90;;;;;;5116616;27;20477;-85
2021/06/20 01:23:09;;;;;;;10.67;9.63;;;20.30;99.90;;;;;;5134620;27;20508;-85
2021/06/20 01:25:40;;;;;;;10.37;9.30;;;20.30;99.90;;;;;;5134856;27;20409;-85
2021/06/20 01:28:09;;;;;;;9.17;8.37;;;20.20;99.90;;;;;;5134896;27;20552;-85
2021/06/20 01:30:38;;;;;;;9.67;8.87;;;20.30;99.90;;;;;;5134896;27;20421;-85
2021/06/20 01:33:07;;;;;;;9.47;8.67;;;20.20;99.90;;;;;;5134961;27;20403;-85
2021/06/20 01:35:33;;;;;;;9.70;8.80;;;20.50;99.90;;;;;;5134737;27;20462;-85
2021/06/20 01:38:00;;;;;;;9.57;8.67;;;20.50;99.90;;;;;;5134400;27;20904;-85
2021/06/20 01:40:26;;;;;;;10.33;9.43;;;20.40;99.90;;;;;;5134786;27;20548;-85
2021/06/20 01:42:52;;;;;;;10.70;9.80;;;20.40;99.90;;;;;;5134671;27;20464;-86
2021/06/20 01:45:20;;;;;;;10.53;9.50;;;20.20;99.90;;;;;;5133383;27;20172;-85
2021/06/20 01:47:47;;;;;;;9.07;8.30;;;20.60;99.90;;;;;;5134299;27;20401;-84
2021/06/20 01:50:14;;;;;;;8.83;7.93;;;20.60;99.90;;;;;;5133232;27;20515;-84
2021/06/20 01:52:41;;;;;;;8.70;7.97;;;20.60;99.90;;;;;;5132903;27;20762;-84
2021/06/20 01:55:08;;;;;;;9.20;8.50;;;20.50;99.90;;;;;;5134532;27;20415;-84
2021/06/20 01:57:36;;;;;;;9.57;8.67;;;20.40;99.90;;;;;;5134421;27;20413;-83
2021/06/20 02:00:06;;;;;;;9.10;8.30;;;20.30;99.90;;;;;;5134371;27;20465;-84
2021/06/20 02:02:31;;;;;;;17.90;8.37;;;20.30;99.90;;;;;;5134251;27;20973;-83
2021/06/20 02:04:57;;;;;;;9.57;8.53;;;20.20;99.90;;;;;;5133070;27;20522;-83
2021/06/20 02:07:25;;;;;;;10.20;9.20;;;20.30;99.90;;;;;;5132667;27;20218;-84
2021/06/20 02:09:52;;;;;;;9.53;8.63;;;20.30;99.90;;;;;;5133848;27;20477;-83
2021/06/20 02:12:20;;;;;;;9.40;8.60;;;20.40;99.90;;;;;;5133959;27;20531;-83
2021/06/20 02:14:46;;;;;;;9.63;8.63;;;20.40;99.90;;;;;;5132845;27;20955;-83
2021/06/20 02:17:23;;;;;;;9.40;8.30;;;20.50;99.90;;;;;;5134073;27;20409;-84
2021/06/20 02:19:53;;;;;;;9.23;8.53;;;20.50;99.90;;;;;;5134093;27;20169;-84
2021/06/20 02:22:19;;;;;;;10.40;9.40;;;20.40;99.90;;;;;;5139404;27;20502;-83
2021/06/20 02:24:44;;;;;;;10.00;9.20;;;20.50;99.90;;;;;;5153463;27;20419;-84
2021/06/20 02:27:13;;;;;;;9.93;9.03;;;20.50;99.90;;;;;;5154098;27;20420;-84
2021/06/20 02:29:40;;;;;;;8.93;8.13;;;20.50;99.90;;;;;;5154554;27;20217;-84
2021/06/20 02:32:06;;;;;;;10.77;9.77;;;20.50;99.90;;;;;;5151311;27;20903;-83
2021/06/20 02:34:32;;;;;;;10.43;9.63;;;20.60;99.90;;;;;;5154599;27;20421;-84
2021/06/20 02:36:58;;;;;;;9.47;8.77;;;20.60;99.90;;;;;;5154189;27;20419;-83
2021/06/20 02:39:24;;;;;;;11.10;10.13;;;20.60;99.90;;;;;;5154567;27;20165;-84
2021/06/20 02:41:50;;;;;;;10.83;9.80;;;20.70;99.90;;;;;;5151181;27;20943;-84
2021/06/20 02:44:19;;;;;;;10.43;9.43;;;20.70;99.90;;;;;;5144636;27;20156;-84
2021/06/20 02:46:45;;;;;;;10.47;9.60;;;20.80;99.90;;;;;;5143430;27;20425;-84
2021/06/20 02:49:11;;;;;;;9.40;8.60;;;20.80;99.90;;;;;;5142590;27;21043;-85
2021/06/20 02:51:38;;;;;;;10.87;9.87;;;20.80;99.90;;;;;;5142104;27;20534;-85
2021/06/20 02:54:04;;;;;;;10.93;9.90;;;20.80;99.90;;;;;;5138760;27;20171;-84
2021/06/20 02:56:29;;;;;;;10.07;9.30;;;20.80;99.90;;;;;;5137702;27;20402;-85
2021/06/20 02:58:55;;;;;;;10.63;9.73;;;20.80;99.90;;;;;;5142303;27;20253;-86
2021/06/20 03:01:20;;;;;;;10.90;10.10;;;20.90;99.90;;;;;;5145237;27;20172;-87
2021/06/20 03:03:46;;;;;;;10.60;9.70;;;20.80;99.90;;;;;;5142915;27;20200;-86
2021/06/20 03:06:13;;;;;;;10.27;9.27;;;20.80;99.90;;;;;;5142211;27;20171;-86
2021/06/20 03:08:38;;;;;;;9.87;9.00;;;20.80;99.90;;;;;;5136594;27;20253;-85
2021/06/20 03:11:04;;;;;;;11.23;10.23;;;20.90;99.90;;;;;;5132260;28;20417;-85
2021/06/20 03:13:29;;;;;;;10.57;9.77;;;20.90;99.90;;;;;;5132201;27;20220;-86
2021/06/20 03:15:56;;;;;;;9.63;8.83;;;20.90;99.90;;;;;;5133065;28;20171;-86
2021/06/20 03:18:21;;;;;;;9.97;9.17;;;21.00;99.90;;;;;;5133501;27;20251;-86
2021/06/20 03:20:47;;;;;;;10.57;9.70;;;20.90;99.90;;;;;;5133494;27;20456;-87
2021/06/20 03:23:13;;;;;;;10.97;9.97;;;20.90;99.90;;;;;;5133080;28;20176;-86
2021/06/20 03:25:40;;;;;;;10.93;9.93;;;21.00;99.90;;;;;;5133445;28;20166;-86
2021/06/20 03:28:06;;;;;;;13.10;11.77;;;21.00;99.90;;;;;;5132153;28;20199;-85
2021/06/20 03:30:33;;;;;;;12.60;11.30;;;21.00;99.90;;;;;;5133383;27;20427;-85
2021/06/20 03:32:58;;;;;;;14.33;10.97;;;21.00;99.90;;;;;;5133252;27;20415;-85
2021/06/20 03:35:24;;;;;;;11.77;10.77;;;21.00;99.90;;;;;;5133315;27;20766;-86
2021/06/20 03:37:50;;;;;;;11.17;10.07;;;21.00;99.90;;;;;;5132960;28;20189;-85
2021/06/20 03:40:16;;;;;;;12.17;11.00;;;21.00;99.90;;;;;;5136810;27;20176;-86
2021/06/20 03:42:42;;;;;;;11.60;10.60;;;21.00;99.90;;;;;;5137067;27;20158;-85
2021/06/20 03:45:08;;;;;;;11.47;10.50;;;21.00;99.90;;;;;;5136971;27;20418;-86
2021/06/20 03:47:35;;;;;;;12.40;11.13;;;21.00;99.90;;;;;;5136894;27;20175;-86
2021/06/20 03:50:02;;;;;;;12.20;11.20;;;20.90;99.90;;;;;;5135493;27;20829;-86
2021/06/20 03:52:28;;;;;;;14.00;12.77;;;20.90;99.90;;;;;;5135205;27;20412;-85
2021/06/20 03:54:54;;;;;;;12.30;11.20;;;20.90;99.90;;;;;;5136823;27;20412;-85
2021/06/20 03:57:23;;;;;;;12.00;10.97;;;21.00;99.90;;;;;;5136771;27;20562;-85
2021/06/20 03:59:49;;;;;;;12.13;10.77;;;20.90;99.90;;;;;;5136684;27;20697;-85
2021/06/20 04:02:15;;;;;;;13.37;12.23;;;20.90;99.90;;;;;;5136572;27;20409;-86
2021/06/20 04:04:42;;;;;;;13.60;12.40;;;21.00;99.90;;;;;;5136643;27;20407;-85
2021/06/20 04:07:11;;;;;;;12.97;12.00;;;21.00;99.90;;;;;;5136227;27;20418;-85
2021/06/20 04:09:37;;;;;;;14.33;12.93;;;21.10;99.90;;;;;;5136532;27;20467;-86
2021/06/20 04:12:03;;;;;;;13.87;12.57;;;21.10;99.90;;;;;;5136365;27;20533;-86
2021/06/20 04:14:30;;;;;;;14.03;12.63;;;21.10;99.90;;;;;;5136359;27;20419;-86
2021/06/20 04:16:56;;;;;;;14.40;13.30;;;21.10;99.90;;;;;;5135050;27;20422;-86
2021/06/20 04:19:22;;;;;;;13.03;11.93;;;21.10;99.90;;;;;;5136265;27;20419;-86
2021/06/20 04:21:47;;;;;;;13.87;12.37;;;21.20;99.90;;;;;;5135909;27;20736;-84
2021/06/20 04:24:13;;;;;;;16.13;14.27;;;21.20;99.90;;;;;;5136162;27;20168;-83
2021/06/20 04:26:41;;;;;;;15.87;14.20;;;21.20;99.90;;;;;;5136043;27;20166;-84
2021/06/20 04:29:06;;;;;;;17.00;13.80;;;21.60;99.90;;;;;;5136014;27;20199;-84
2021/06/20 04:31:32;;;;;;;15.97;14.57;;;21.70;99.90;;;;;;5136154;27;20414;-85
2021/06/20 04:33:58;;;;;;;14.57;13.27;;;21.70;99.90;;;;;;5136013;27;20169;-85
2021/06/20 04:36:23;;;;;;;13.70;12.57;;;21.60;99.90;;;;;;5135565;27;20174;-84
2021/06/20 04:38:49;;;;;;;14.37;13.07;;;21.60;99.90;;;;;;5134696;27;20168;-85
2021/06/20 04:41:17;;;;;;;12.87;11.77;;;21.50;99.90;;;;;;5135853;27;20170;-88
2021/06/20 04:46:33;;;;;;;13.50;12.20;;;21.20;99.90;;;;;;5135804;27;20409;-88
2021/06/20 04:49:03;;;;;;;13.07;10.60;;;21.10;99.90;;;;;;5134496;27;20529;-89
2021/06/20 04:51:31;;;;;;;12.37;11.20;;;21.00;99.90;;;;;;5133965;27;20781;-88
2021/06/20 04:53:56;;;;;;;9.70;8.70;;;21.00;99.90;;;;;;5134608;27;20417;-90
2021/06/20 04:56:23;;;;;;;11.03;9.60;;;20.90;99.90;;;;;;5136077;27;20402;-90
2021/06/20 04:58:48;;;;;;;13.77;9.87;;;20.80;99.90;;;;;;5135891;27;20164;-89
2021/06/20 05:01:14;;;;;;;11.70;7.07;;;20.80;99.90;;;;;;5134572;27;20559;-90
2021/06/20 05:03:39;;;;;;;6.90;5.50;;;20.80;99.90;;;;;;5135553;27;20196;-87
2021/06/20 05:06:05;;;;;;;6.13;5.47;;;20.60;99.90;;;;;;5135380;27;20531;-88
2021/06/20 05:08:31;;;;;;;8.70;5.37;;;20.50;99.90;;;;;;5135104;27;20204;-88
2021/06/20 05:10:56;;;;;;;6.70;5.03;;;20.50;99.90;;;;;;5135500;27;20173;-89
2021/06/20 05:13:22;;;;;;;9.37;6.03;;;20.40;99.90;;;;;;5138422;27;20225;-88
2021/06/20 05:15:47;;;;;;;7.93;4.97;;;20.30;99.90;;;;;;5143147;27;20178;-88
2021/06/20 05:18:13;;;;;;;9.70;5.20;;;20.20;99.90;;;;;;5145290;27;20169;-90
2021/06/20 05:20:40;;;;;;;6.93;4.63;;;20.10;99.90;;;;;;5143279;27;20174;-90
2021/06/20 05:23:07;;;;;;;5.70;4.67;;;20.00;99.90;;;;;;5146672;27;20191;-87
2021/06/20 05:25:33;;;;;;;11.00;5.70;;;20.00;99.90;;;;;;5161415;27;20431;-88
2021/06/20 05:27:58;;;;;;;7.27;3.93;;;20.00;99.90;;;;;;5155877;27;20466;-88
2021/06/20 05:30:24;;;;;;;6.67;4.40;;;19.90;99.90;;;;;;5166637;27;20204;-88
2021/06/20 05:32:50;;;;;;;4.67;3.20;;;19.80;99.90;;;;;;5164580;27;20171;-87
2021/06/20 05:35:16;;;;;;;4.90;2.93;;;19.80;99.90;;;;;;5161635;27;20420;-89
2021/06/20 05:37:43;;;;;;;5.43;3.23;;;19.70;99.90;;;;;;5160879;27;20188;-90
2021/06/20 05:40:09;;;;;;;4.60;2.83;;;19.60;99.90;;;;;;5157623;27;20455;-90
2021/06/20 05:42:35;;;;;;;4.30;2.90;;;19.50;99.90;;;;;;5156091;27;20416;-89
2021/06/20 05:45:00;;;;;;;5.53;2.83;;;19.40;99.90;;;;;;5156474;27;20421;-88
2021/06/20 05:47:26;;;;;;;5.17;1.63;;;19.40;99.90;;;;;;5140943;27;20180;-86
2021/06/20 05:49:51;;;;;;;5.60;2.20;;;19.30;99.90;;;;;;5127913;27;20203;-87
2021/06/20 05:52:17;;;;;;;5.37;1.80;;;19.30;99.90;;;;;;5123707;27;20173;-87
2021/06/20 05:54:49;;;;;;;3.57;2.77;;;19.30;99.90;;;;;;5122231;27;20925;-86
2021/06/20 05:57:16;;;;;;;4.10;1.97;;;19.40;99.90;;;;;;5120751;27;20631;-88
2021/06/20 05:59:41;;;;;;;4.07;2.20;;;19.30;99.90;;;;;;5137349;27;20501;-88
2021/06/20 06:02:07;;;;;;;8.30;2.20;;;19.30;99.90;;;;;;5140528;27;20412;-88
2021/06/20 06:04:32;;;;;;;4.07;2.43;;;19.30;99.90;;;;;;5147766;27;20168;-86
2021/06/20 06:06:58;;;;;;;5.17;2.67;;;19.40;99.90;;;;;;5123895;27;20260;-86
2021/06/20 06:09:24;;;;;;;9.93;3.00;;;19.30;99.90;;;;;;5123467;27;20692;-87
2021/06/20 06:11:50;;;;;;;6.60;3.07;;;19.30;99.90;;;;;;5122209;27;20291;-87
2021/06/20 06:14:16;;;;;;;5.60;2.57;;;19.20;99.90;;;;;;5133425;27;20183;-87
2021/06/20 06:16:42;;;;;;;4.50;2.50;;;19.20;99.90;;;;;;5144306;27;20787;-87
2021/06/20 06:19:09;;;;;;;6.10;3.27;;;19.20;99.90;;;;;;5142688;27;20174;-86
2021/06/20 06:21:36;;;;;;;5.53;2.17;;;19.40;99.90;;;;;;5143910;27;20169;-87
2021/06/20 06:24:01;;;;;;;4.73;3.67;;;19.30;99.90;;;;;;5146644;27;20432;-90
2021/06/20 06:26:27;;;;;;;5.43;3.10;;;19.40;99.90;;;;;;5146896;27;20426;-88
2021/06/20 06:28:53;;;;;;;5.67;3.30;;;19.40;99.90;;;;;;5155870;27;20500;-90
2021/06/20 06:31:18;;;;;;;4.03;2.17;;;19.50;99.90;;;;;;5153233;27;20168;-88
2021/06/20 06:33:44;;;;;;;5.20;2.73;;;19.50;99.90;;;;;;5129689;27;20210;-90
2021/06/20 06:36:09;;;;;;;4.43;3.33;;;19.50;99.90;;;;;;5129399;27;20207;-89
2021/06/20 06:38:35;;;;;;;9.60;4.37;;;19.60;99.90;;;;;;5136094;27;20202;-89
2021/06/20 06:41:01;;;;;;;7.10;3.80;;;19.60;99.90;;;;;;5142725;27;20197;-90
2021/06/20 06:43:26;;;;;;;6.37;3.37;;;19.60;99.90;;;;;;5116819;28;20187;-91
2021/06/20 06:45:52;;;;;;;5.80;3.10;;;19.70;99.90;;;;;;5116098;28;20244;-89
2021/06/20 06:48:17;;;;;;;8.30;3.90;;;19.80;99.90;;;;;;5113587;28;20659;-89
2021/06/20 06:50:44;;;;;;;6.93;4.13;;;20.00;99.90;;;;;;5113594;28;20275;-91
2021/06/20 06:53:10;;;;;;;6.00;5.07;;;20.10;99.90;;;;;;5112145;28;20186;-89
2021/06/20 06:55:36;;;;;;;6.97;3.70;;;20.30;99.90;;;;;;5113797;28;20408;-91
2021/06/20 06:58:02;;;;;;;4.60;3.30;;;20.40;99.90;;;;;;5113467;28;20437;-90
2021/06/20 07:00:28;;;;;;;6.67;3.77;;;20.80;99.90;;;;;;5113523;28;20179;-89
2021/06/20 07:02:54;;;;;;;3.23;2.93;;;21.10;99.90;;;;;;5113457;28;20424;-89
2021/06/20 07:05:19;;;;;;;3.93;2.97;;;21.20;99.90;;;;;;5113154;28;20182;-88
2021/06/20 07:07:46;;;;;;;9.37;3.37;;;21.20;99.90;;;;;;5112944;28;20411;-89
2021/06/20 07:10:12;;;;;;;7.03;3.27;;;21.60;99.90;;;;;;5112160;28;20646;-90
2021/06/20 07:12:37;;;;;;;3.47;2.70;;;22.10;99.90;;;;;;5111832;28;20467;-89
2021/06/20 07:15:05;;;;;;;8.20;2.90;;;22.50;99.90;;;;;;5116798;28;20417;-88
2021/06/20 07:17:32;;;;;;;5.17;3.03;;;22.80;99.90;;;;;;5115906;28;20173;-90
2021/06/20 07:19:58;;;;;;;5.93;2.97;;;22.90;99.90;;;;;;5117040;28;20462;-88
2021/06/20 07:22:24;;;;;;;5.30;3.43;;;23.30;99.90;;;;;;5116876;28;20765;-89
2021/06/20 07:24:50;;;;;;;5.97;3.03;;;23.70;99.90;;;;;;5115591;28;20175;-89
2021/06/20 07:27:15;;;;;;;4.00;2.10;;;24.00;99.90;;;;;;5117163;28;20179;-89
2021/06/20 07:29:42;;;;;;;8.10;2.73;;;23.70;99.90;;;;;;5116841;28;20828;-89
2021/06/20 07:32:08;;;;;;;5.33;3.30;;;23.70;99.90;;;;;;5117003;28;20641;-89
2021/06/20 07:34:34;;;;;;;7.13;3.00;;;24.40;99.90;;;;;;5117095;28;20411;-88
2021/06/20 07:37:00;;;;;;;6.47;2.50;;;25.60;99.90;;;;;;5116460;28;20408;-86
2021/06/20 07:39:25;;;;;;;5.53;3.23;;;25.90;99.90;;;;;;5114885;28;20178;-88
2021/06/20 07:41:51;;;;;;;8.23;3.10;;;26.40;54.60;;;;;;5115660;28;20495;-88
2021/06/20 07:44:17;;;;;;;5.70;2.40;;;26.00;49.50;;;;;;5116684;28;20201;-88
2021/06/20 07:46:42;;;;;;;7.67;3.20;;;26.20;73.00;;;;;;5115347;28;20602;-87
2021/06/20 07:49:08;;;;;;;3.93;2.57;;;27.40;1.00;;;;;;5116347;28;20293;-87
2021/06/20 07:51:34;;;;;;;5.17;2.73;;;27.30;1.00;;;;;;5115999;28;20168;-89
2021/06/20 07:53:59;;;;;;;4.03;2.20;;;27.80;1.00;;;;;;5116496;28;20263;-87
2021/06/20 07:56:25;;;;;;;5.60;3.67;;;27.30;1.00;;;;;;5115152;28;20167;-86
2021/06/20 07:58:51;;;;;;;5.90;3.47;;;27.30;1.00;;;;;;5116559;28;20175;-87
2021/06/20 08:01:16;;;;;;;6.90;2.83;;;27.90;1.00;;;;;;5115041;28;20787;-88
2021/06/20 08:03:42;;;;;;;6.77;2.73;;;28.10;1.00;;;;;;5116336;28;20534;-87
2021/06/20 08:06:08;;;;;;;6.23;2.97;;;29.00;1.00;;;;;;5115994;28;20172;-88
2021/06/20 08:08:33;;;;;;;5.17;3.20;;;28.10;1.00;;;;;;5116227;28;20207;-88
2021/06/20 08:11:02;;;;;;;9.23;3.50;;;29.50;1.00;;;;;;5116187;28;20168;-88
2021/06/20 08:13:28;;;;;;;9.20;3.53;;;29.20;1.00;;;;;;5116247;28;20705;-88
2021/06/20 08:15:53;;;;;;;9.23;3.90;;;30.10;1.00;;;;;;5114989;28;20417;-87
2021/06/20 08:18:19;;;;;;;11.23;3.87;;;29.60;1.00;;;;;;5114885;28;20639;-86
2021/06/20 08:20:44;;;;;;;5.23;2.70;;;27.70;23.70;;;;;;5115860;28;20175;-88
2021/06/20 08:23:10;;;;;;;6.50;2.83;;;28.40;1.00;;;;;;5115895;28;20191;-87
2021/06/20 08:25:35;;;;;;;11.97;3.43;;;27.30;1.00;;;;;;5115062;28;20588;-88
2021/06/20 08:28:01;;;;;;;7.50;2.87;;;28.60;1.00;;;;;;5115875;28;20172;-86
2021/06/20 08:30:26;;;;;;;5.70;2.63;;;28.00;1.00;;;;;;5115915;28;20176;-87
2021/06/20 08:32:52;;;;;;;10.13;2.90;;;27.30;27.40;;;;;;5114434;28;20224;-86
2021/06/20 08:35:19;;;;;;;10.80;3.10;;;27.50;51.90;;;;;;5114356;28;20655;-86
2021/06/20 08:37:45;;;;;;;5.50;2.70;;;27.20;1.00;;;;;;5115331;28;20172;-86
2021/06/20 08:40:11;;;;;;;4.80;2.93;;;25.80;92.10;;;;;;5115548;28;20485;-87
2021/06/20 08:42:37;;;;;;;6.93;2.90;;;25.10;99.90;;;;;;5115557;28;20180;-85
2021/06/20 08:45:04;;;;;;;7.73;3.70;;;24.80;99.90;;;;;;5114337;28;20233;-86
2021/06/20 08:47:29;;;;;;;7.90;3.63;;;24.60;99.90;;;;;;5113589;28;20182;-86
2021/06/20 08:49:55;;;;;;;8.73;3.50;;;25.30;99.90;;;;;;5115335;28;20469;-85
2021/06/20 08:52:20;;;;;;;5.07;3.30;;;24.90;99.90;;;;;;5113722;28;20186;-85
2021/06/20 08:55:01;;;;;;;4.83;3.10;;;24.50;99.90;;;;;;5115284;28;20206;-84
2021/06/20 08:57:33;;;;;;;7.60;3.70;;;24.40;99.90;;;;;;5115409;28;20170;-86
2021/06/20 08:59:59;;;;;;;6.73;2.83;;;24.50;99.90;;;;;;5115221;28;20469;-86
2021/06/20 09:02:29;;;;;;;5.77;3.03;;;24.40;99.90;;;;;;5115100;28;20412;-85
2021/06/20 09:05:00;;;;;;;4.63;2.93;;;24.10;99.90;;;;;;5115170;28;20173;-86
2021/06/20 09:07:35;;;;;;;4.60;3.90;;;23.90;99.90;;;;;;5115092;28;20411;-87
2021/06/20 09:10:25;;;;;;;5.43;2.77;;;24.10;99.90;;;;;;5118913;27;20555;-90
2021/06/20 09:12:53;;;;;;;6.17;3.70;;;23.90;99.90;;;;;;5145510;27;20896;-88
2021/06/20 09:15:24;;;;;;;6.00;3.03;;;24.00;99.90;;;;;;5123539;27;20407;-86
2021/06/20 09:18:02;;;;;;;5.40;3.23;;;24.20;99.90;;;;;;5121795;27;20434;-87
2021/06/20 09:20:39;;;;;;;7.10;3.80;;;23.90;99.90;;;;;;5122708;27;20404;-87
2021/06/20 09:23:10;;;;;;;4.30;3.57;;;23.80;99.90;;;;;;5125683;27;20406;-88
2021/06/20 09:25:40;;;;;;;4.20;3.47;;;23.80;99.90;;;;;;5123682;27;20419;-86
2021/06/20 09:28:08;;;;;;;5.30;4.20;;;24.00;99.90;;;;;;5122571;27;20486;-85
2021/06/20 09:30:39;;;;;;;8.67;4.33;;;23.70;99.90;;;;;;5122512;27;20424;-87
2021/06/20 09:33:07;;;;;;;8.87;4.57;;;23.90;99.90;;;;;;5122496;27;20406;-87
2021/06/20 09:35:52;;;;;;;6.90;4.40;;;24.00;99.90;;;;;;5122417;27;20848;-86
2021/06/20 09:38:22;;;;;;;9.27;4.80;;;23.70;99.90;;;;;;5123577;27;20927;-86
2021/06/20 09:40:52;;;;;;;7.27;4.10;;;23.60;99.90;;;;;;5122182;27;20415;-87
2021/06/20 09:43:19;;;;;;;6.60;4.30;;;23.40;99.90;;;;;;5124399;27;20414;-86
2021/06/20 09:45:49;;;;;;;8.70;4.37;;;23.50;99.90;;;;;;5123659;27;20401;-86
2021/06/20 09:48:26;;;;;;;10.87;4.93;;;23.50;99.90;;;;;;5126548;27;20446;-87
2021/06/20 09:50:53;;;;;;;5.13;4.20;;;23.60;99.90;;;;;;5122666;27;21020;-86
2021/06/20 09:53:31;;;;;;;5.80;3.90;;;23.40;99.90;;;;;;5122369;27;20476;-86
2021/06/20 09:56:16;;;;;;;6.00;4.10;;;23.70;99.90;;;;;;5122121;27;20403;-91
2021/06/20 09:58:44;;;;;;;5.90;4.47;;;23.80;99.90;;;;;;5122588;27;20784;-89
2021/06/20 10:01:19;;;;;;;5.10;4.13;;;23.80;99.90;;;;;;5130277;27;20841;-86
2021/06/20 10:03:46;;;;;;;7.90;5.00;;;23.90;99.90;;;;;;5155215;27;20904;-87
2021/06/20 10:06:13;;;;;;;7.40;5.23;;;23.90;99.90;;;;;;5153459;27;20510;-86
2021/06/20 10:08:40;;;;;;;9.57;5.00;;;24.40;99.90;;;;;;5155019;27;20469;-86
2021/06/20 10:11:06;;;;;;;6.10;4.10;;;25.10;61.70;;;;;;5155124;27;20411;-86
2021/06/20 10:13:32;;;;;;;10.70;6.13;;;25.60;21.30;;;;;;5153462;27;21065;-86
2021/06/20 10:16:24;;;;;;;6.27;5.33;;;26.20;1.00;;;;;;5154847;27;20216;-86
2021/06/20 10:18:58;;;;;;;4.70;4.30;;;27.80;1.00;;;;;;5154956;27;20255;-88
2021/06/20 10:21:35;;;;;;;5.33;4.80;;;28.10;1.00;;;;;;5154445;27;20411;-85
2021/06/20 10:24:12;;;;;;;5.53;4.13;;;27.20;1.00;;;;;;5154824;27;20812;-86
2021/06/20 10:26:40;;;;;;;6.00;4.07;;;27.40;1.00;;;;;;5154749;27;20903;-86
2021/06/20 10:29:34;;;;;;;5.60;4.47;;;27.90;1.00;;;;;;5153392;27;20468;-86
2021/06/20 10:32:13;;;;;;;7.10;4.00;;;27.50;1.00;;;;;;5154828;27;20400;-89
2021/06/20 10:34:53;;;;;;;5.87;3.97;;;27.70;1.00;;;;;;5154622;27;20403;-87
2021/06/20 10:37:22;;;;;;;5.17;4.57;;;27.10;1.00;;;;;;5154397;27;20456;-86
2021/06/20 10:39:49;;;;;;;6.50;4.20;;;28.30;1.00;;;;;;5154627;27;20408;-86
2021/06/20 10:42:15;;;;;;;4.93;4.20;;;28.70;1.00;;;;;;5154627;27;20396;-86
2021/06/20 10:44:46;;;;;;;6.90;4.50;;;27.40;1.00;;;;;;5154693;27;20826;-87
2021/06/20 10:47:25;;;;;;;7.53;4.87;;;28.50;1.00;;;;;;5153371;27;20802;-86
2021/06/20 10:50:01;;;;;;;6.80;4.13;;;28.40;99.90;;;;;;5157874;27;20462;-87
2021/06/20 10:52:26;;;;;;;5.47;4.30;;;29.00;99.90;;;;;;5158142;27;20426;-87
2021/06/20 10:55:12;;;;;;;4.60;3.67;;;28.30;99.90;;;;;;5157234;27;20420;-86
2021/06/20 10:57:51;;;;;;;4.90;4.33;;;29.00;99.90;;;;;;5158819;27;20169;-86
2021/06/20 11:00:34;;;;;;;4.50;3.80;;;28.40;99.90;;;;;;5158908;27;20403;-87
2021/06/20 11:03:07;;;;;;;4.33;3.57;;;27.50;1.00;;;;;;5158743;27;20415;-86
2021/06/20 11:05:49;;;;;;;4.37;3.97;;;28.30;1.00;;;;;;5158236;27;20404;-86
2021/06/20 11:08:30;;;;;;;4.33;3.80;;;29.90;1.00;;;;;;5158546;27;20866;-87
2021/06/20 11:11:23;;;;;;;6.17;5.03;;;28.50;5.60;;;;;;5158631;27;20514;-87
2021/06/20 11:13:55;;;;;;;6.40;4.00;;;27.90;99.90;;;;;;5158632;27;20515;-86
2021/06/20 11:16:32;;;;;;;5.33;4.80;;;27.90;99.90;;;;;;5158431;27;20403;-86
2021/06/20 11:19:07;;;;;;;5.60;4.93;;;27.90;1.00;;;;;;5158469;27;20482;-86
2021/06/20 11:21:45;;;;;;;5.40;4.33;;;27.80;99.90;;;;;;5157856;27;20405;-87
2021/06/20 11:24:13;;;;;;;4.70;4.30;;;28.40;1.00;;;;;;5158400;27;20396;-86
2021/06/20 11:26:38;;;;;;;6.90;3.77;;;29.70;1.00;;;;;;5156971;27;20403;-87
2021/06/20 11:29:07;;;;;;;4.90;3.70;;;30.00;1.00;;;;;;5158168;27;20546;-87
2021/06/20 11:31:43;;;;;;;7.53;3.33;;;29.30;20.60;;;;;;5158228;27;20501;-87
2021/06/20 11:34:09;;;;;;;3.43;3.13;;;28.60;99.90;;;;;;5158375;27;20464;-87
2021/06/20 11:36:35;;;;;;;4.93;3.50;;;29.30;1.00;;;;;;5157770;27;20903;-86
2021/06/20 11:39:07;;;;;;;3.47;3.07;;;30.20;99.90;;;;;;5158000;27;20213;-86
2021/06/20 11:41:43;;;;;;;4.37;3.33;;;30.00;99.90;;;;;;5157960;27;20166;-87
2021/06/20 11:44:10;;;;;;;5.17;3.47;;;30.40;1.00;;;;;;5158041;27;20399;-86
2021/06/20 11:46:36;;;;;;;4.30;3.33;;;29.90;1.00;;;;;;5157918;27;20400;-87
2021/06/20 11:49:05;;;;;;;3.17;2.87;;;29.20;99.90;;;;;;5156505;27;20566;-86
2021/06/20 11:51:39;;;;;;;5.87;3.27;;;29.20;1.00;;;;;;5157539;27;20423;-86
2021/06/20 11:54:09;;;;;;;4.13;2.57;;;28.80;1.00;;;;;;5157832;27;20398;-87
2021/06/20 11:56:36;;;;;;;3.63;2.77;;;30.20;99.90;;;;;;5147342;27;20508;-88
2021/06/20 11:59:02;;;;;;;5.43;3.30;;;30.90;99.90;;;;;;5117673;27;20763;-87
2021/06/20 12:01:49;;;;;;;4.37;2.80;;;30.80;99.90;;;;;;5120559;27;20426;-86
2021/06/20 12:04:20;;;;;;;2.43;2.27;;;31.70;38.20;;;;;;5135503;27;20638;-87
2021/06/20 12:06:46;;;;;;;2.90;2.70;;;31.90;1.00;;;;;;5135817;27;20421;-86
2021/06/20 12:09:12;;;;;;;3.53;2.80;;;31.30;99.90;;;;;;5137486;27;20498;-88
2021/06/20 12:11:39;;;;;;;3.03;2.50;;;31.20;1.00;;;;;;5132677;27;20425;-87
2021/06/20 12:14:05;;;;;;;2.67;2.10;;;31.90;99.90;;;;;;5114998;28;20180;-87
2021/06/20 12:16:31;;;;;;;3.00;2.50;;;31.40;99.90;;;;;;5114830;28;20417;-86
2021/06/20 12:18:58;;;;;;;2.93;2.60;;;31.90;99.90;;;;;;5120140;27;20416;-86
2021/06/20 12:21:26;;;;;;;2.70;2.23;;;32.20;99.90;;;;;;5136436;27;20639;-87
2021/06/20 12:23:54;;;;;;;7.00;2.47;;;31.40;99.90;;;;;;5122173;27;20512;-86
2021/06/20 12:26:30;;;;;;;4.57;2.40;;;31.10;99.90;;;;;;5117554;27;20471;-87
2021/06/20 12:28:57;;;;;;;3.67;2.20;;;31.60;99.90;;;;;;5116180;28;20496;-87
2021/06/20 12:31:24;;;;;;;5.30;2.90;;;31.90;99.90;;;;;;5115432;28;20410;-86
2021/06/20 12:34:07;;;;;;;3.40;2.17;;;32.10;99.90;;;;;;5126850;27;20417;-86
2021/06/20 12:36:33;;;;;;;2.23;2.13;;;32.30;99.90;;;;;;5137904;27;20404;-86
2021/06/20 12:39:01;;;;;;;4.40;2.07;;;32.40;99.90;;;;;;5119603;27;20827;-87
2021/06/20 12:41:27;;;;;;;3.60;1.73;;;32.20;99.90;;;;;;5117751;28;20833;-87
2021/06/20 12:43:58;;;;;;;2.23;1.70;;;32.50;99.90;;;;;;5115584;28;20478;-86
2021/06/20 12:46:34;;;;;;;2.80;1.70;;;32.70;99.90;;;;;;5115749;28;20913;-90
2021/06/20 12:49:08;;;;;;;1.70;1.57;;;32.30;99.90;;;;;;5115400;28;20444;-88
2021/06/20 12:51:39;;;;;;;1.90;1.80;;;32.10;99.90;;;;;;5113924;28;20992;-85